sensor_id;sensor_type;location;lat;lon;timestamp;pressure;altitude;pressure_sealevel;temperature;humidity
72900;BME280;61043;52.036;5.566;2022-07-29T00:02:14;101813.19;;;18.31;57.70
72900;BME280;61043;52.036;5.566;2022-07-29T00:04:41;101797.59;;;18.25;57.71
72900;BME280;61043;52.036;5.566;2022-07-29T00:07:07;101808.06;;;18.28;57.54
72900;BME280;61043;52.036;5.566;2022-07-29T00:09:35;101794.00;;;18.15;57.76
72900;BME280;61043;52.036;5.566;2022-07-29T00:12:18;101807.22;;;18.28;57.80
72900;BME280;61043;52.036;5.566;2022-07-29T00:14:53;101814.81;;;18.23;58.06
72900;BME280;61043;52.036;5.566;2022-07-29T00:17:21;101814.34;;;18.18;58.13
72900;BME280;61043;52.036;5.566;2022-07-29T00:19:47;101802.50;;;18.20;58.06
72900;BME280;61043;52.036;5.566;2022-07-29T00:22:14;101808.06;;;18.28;57.74
72900;BME280;61043;52.036;5.566;2022-07-29T00:24:41;101787.53;;;18.18;57.95
72900;BME280;61043;52.036;5.566;2022-07-29T00:27:08;101798.06;;;18.30;57.74
72900;BME280;61043;52.036;5.566;2022-07-29T00:29:35;101787.28;;;18.21;57.54
72900;BME280;61043;52.036;5.566;2022-07-29T00:32:02;101786.81;;;18.16;58.34
72900;BME280;61043;52.036;5.566;2022-07-29T00:34:30;101790.38;;;18.16;58.09
72900;BME280;61043;52.036;5.566;2022-07-29T00:37:15;101786.03;;;18.25;57.86
72900;BME280;61043;52.036;5.566;2022-07-29T00:39:42;101793.97;;;18.26;58.17
72900;BME280;61043;52.036;5.566;2022-07-29T00:42:09;101774.06;;;18.08;58.19
72900;BME280;61043;52.036;5.566;2022-07-29T00:44:40;101787.69;;;18.16;58.06
72900;BME280;61043;52.036;5.566;2022-07-29T00:47:09;101787.81;;;18.15;58.61
72900;BME280;61043;52.036;5.566;2022-07-29T00:49:36;101780.50;;;18.17;58.19
72900;BME280;61043;52.036;5.566;2022-07-29T00:52:05;101772.00;;;18.11;58.10
72900;BME280;61043;52.036;5.566;2022-07-29T00:54:33;101752.50;;;18.09;58.24
72900;BME280;61043;52.036;5.566;2022-07-29T00:57:00;101761.78;;;18.05;59.00
72900;BME280;61043;52.036;5.566;2022-07-29T00:59:28;101739.31;;;17.97;58.42
72900;BME280;61043;52.036;5.566;2022-07-29T01:02:01;101769.22;;;18.23;57.78
72900;BME280;61043;52.036;5.566;2022-07-29T01:04:28;101757.34;;;18.16;58.06
72900;BME280;61043;52.036;5.566;2022-07-29T01:06:56;101765.72;;;18.22;57.91
72900;BME280;61043;52.036;5.566;2022-07-29T01:09:24;101740.34;;;18.05;58.03
72900;BME280;61043;52.036;5.566;2022-07-29T01:12:17;101749.84;;;18.09;58.61
72900;BME280;61043;52.036;5.566;2022-07-29T01:14:46;101764.47;;;18.05;58.96
72900;BME280;61043;52.036;5.566;2022-07-29T01:17:21;101761.84;;;17.94;58.88
72900;BME280;61043;52.036;5.566;2022-07-29T01:20:07;101765.13;;;17.98;59.70
72900;BME280;61043;52.036;5.566;2022-07-29T01:22:49;101755.13;;;18.00;59.06
72900;BME280;61043;52.036;5.566;2022-07-29T01:25:47;101764.47;;;18.05;58.25
72900;BME280;61043;52.036;5.566;2022-07-29T01:31:11;101751.53;;;17.89;59.46
72900;BME280;61043;52.036;5.566;2022-07-29T01:33:57;101757.41;;;17.83;59.01
72900;BME280;61043;52.036;5.566;2022-07-29T01:36:32;101760.59;;;17.77;59.58
72900;BME280;61043;52.036;5.566;2022-07-29T01:39:19;101754.44;;;17.65;59.96
72900;BME280;61043;52.036;5.566;2022-07-29T01:41:57;101760.13;;;17.72;59.72
72900;BME280;61043;52.036;5.566;2022-07-29T01:44:54;101759.25;;;17.72;59.44
72900;BME280;61043;52.036;5.566;2022-07-29T01:47:26;101756.13;;;17.66;60.04
72900;BME280;61043;52.036;5.566;2022-07-29T01:49:58;101750.19;;;17.63;59.77
72900;BME280;61043;52.036;5.566;2022-07-29T01:52:49;101762.94;;;17.71;58.90
72900;BME280;61043;52.036;5.566;2022-07-29T01:55:20;101779.00;;;17.71;59.84
72900;BME280;61043;52.036;5.566;2022-07-29T01:57:50;101774.03;;;17.66;59.88
72900;BME280;61043;52.036;5.566;2022-07-29T02:00:17;101735.84;;;17.53;59.68
72900;BME280;61043;52.036;5.566;2022-07-29T02:02:46;101767.25;;;17.62;59.89
72900;BME280;61043;52.036;5.566;2022-07-29T02:05:15;101765.41;;;17.62;59.78
72900;BME280;61043;52.036;5.566;2022-07-29T02:07:46;101757.22;;;17.64;59.36
72900;BME280;61043;52.036;5.566;2022-07-29T02:10:14;101748.41;;;17.52;60.13
72900;BME280;61043;52.036;5.566;2022-07-29T02:12:44;101758.47;;;17.60;59.50
72900;BME280;61043;52.036;5.566;2022-07-29T02:15:16;101759.41;;;17.70;59.74
72900;BME280;61043;52.036;5.566;2022-07-29T02:17:53;101763.19;;;17.67;59.90
72900;BME280;61043;52.036;5.566;2022-07-29T02:20:22;101768.28;;;17.71;59.39
72900;BME280;61043;52.036;5.566;2022-07-29T02:22:52;101757.69;;;17.80;59.42
72900;BME280;61043;52.036;5.566;2022-07-29T02:25:20;101761.94;;;17.83;59.80
72900;BME280;61043;52.036;5.566;2022-07-29T02:27:50;101747.19;;;17.77;59.74
72900;BME280;61043;52.036;5.566;2022-07-29T02:30:18;101747.69;;;17.71;59.68
72900;BME280;61043;52.036;5.566;2022-07-29T02:32:46;101737.94;;;17.49;60.10
72900;BME280;61043;52.036;5.566;2022-07-29T02:35:15;101743.16;;;17.51;60.47
72900;BME280;61043;52.036;5.566;2022-07-29T02:37:44;101732.41;;;17.41;60.64
72900;BME280;61043;52.036;5.566;2022-07-29T02:40:12;101749.25;;;17.53;60.52
72900;BME280;61043;52.036;5.566;2022-07-29T02:42:45;101735.84;;;17.53;59.97
72900;BME280;61043;52.036;5.566;2022-07-29T02:45:12;101732.25;;;17.42;60.94
72900;BME280;61043;52.036;5.566;2022-07-29T02:47:42;101728.00;;;17.40;60.89
72900;BME280;61043;52.036;5.566;2022-07-29T02:50:13;101737.69;;;17.52;59.31
72900;BME280;61043;52.036;5.566;2022-07-29T02:52:45;101732.88;;;17.46;60.72
72900;BME280;61043;52.036;5.566;2022-07-29T02:55:26;101750.34;;;17.50;59.78
72900;BME280;61043;52.036;5.566;2022-07-29T02:58:06;101737.81;;;17.51;59.82
72900;BME280;61043;52.036;5.566;2022-07-29T03:00:37;101731.50;;;17.52;59.88
72900;BME280;61043;52.036;5.566;2022-07-29T03:03:09;101744.50;;;17.56;60.26
72900;BME280;61043;52.036;5.566;2022-07-29T03:05:37;101735.66;;;17.44;60.77
72900;BME280;61043;52.036;5.566;2022-07-29T03:08:06;101736.19;;;17.38;60.63
72900;BME280;61043;52.036;5.566;2022-07-29T03:10:37;101740.19;;;17.33;61.56
72900;BME280;61043;52.036;5.566;2022-07-29T03:13:05;101719.34;;;17.15;61.77
72900;BME280;61043;52.036;5.566;2022-07-29T03:15:34;101728.31;;;17.14;61.99
72900;BME280;61043;52.036;5.566;2022-07-29T03:18:01;101712.78;;;17.08;61.73
72900;BME280;61043;52.036;5.566;2022-07-29T03:20:28;101721.38;;;17.23;60.89
72900;BME280;61043;52.036;5.566;2022-07-29T03:22:55;101716.94;;;17.12;61.56
72900;BME280;61043;52.036;5.566;2022-07-29T03:25:22;101718.13;;;17.08;61.76
72900;BME280;61043;52.036;5.566;2022-07-29T03:27:49;101717.16;;;17.09;61.47
72900;BME280;61043;52.036;5.566;2022-07-29T03:30:16;101713.47;;;17.21;61.38
72900;BME280;61043;52.036;5.566;2022-07-29T03:32:48;101708.47;;;17.28;60.78
72900;BME280;61043;52.036;5.566;2022-07-29T03:35:17;101711.72;;;17.32;60.78
72900;BME280;61043;52.036;5.566;2022-07-29T03:37:45;101691.47;;;17.18;61.01
72900;BME280;61043;52.036;5.566;2022-07-29T03:40:18;101699.38;;;17.19;60.87
72900;BME280;61043;52.036;5.566;2022-07-29T03:42:46;101701.94;;;17.21;61.07
72900;BME280;61043;52.036;5.566;2022-07-29T03:45:17;101697.31;;;17.23;60.77
72900;BME280;61043;52.036;5.566;2022-07-29T03:47:50;101705.19;;;17.24;61.43
72900;BME280;61043;52.036;5.566;2022-07-29T03:50:25;101687.97;;;17.17;61.52
72900;BME280;61043;52.036;5.566;2022-07-29T03:52:52;101692.69;;;17.14;61.78
72900;BME280;61043;52.036;5.566;2022-07-29T03:55:19;101687.22;;;17.15;61.51
72900;BME280;61043;52.036;5.566;2022-07-29T03:57:46;101693.53;;;17.14;61.30
72900;BME280;61043;52.036;5.566;2022-07-29T04:00:14;101696.63;;;17.10;61.93
72900;BME280;61043;52.036;5.566;2022-07-29T04:02:43;101695.16;;;17.06;61.87
72900;BME280;61043;52.036;5.566;2022-07-29T04:05:16;101700.16;;;16.99;61.74
72900;BME280;61043;52.036;5.566;2022-07-29T04:07:44;101699.41;;;17.08;61.84
72900;BME280;61043;52.036;5.566;2022-07-29T04:10:11;101686.78;;;16.99;62.05
72900;BME280;61043;52.036;5.566;2022-07-29T04:12:38;101701.63;;;17.03;61.70
72900;BME280;61043;52.036;5.566;2022-07-29T04:15:05;101704.28;;;17.03;61.34
72900;BME280;61043;52.036;5.566;2022-07-29T04:17:31;101715.94;;;17.13;61.43
72900;BME280;61043;52.036;5.566;2022-07-29T04:19:58;101725.16;;;17.20;61.24
72900;BME280;61043;52.036;5.566;2022-07-29T04:22:25;101714.94;;;17.25;60.78
72900;BME280;61043;52.036;5.566;2022-07-29T04:24:52;101719.19;;;17.28;60.77
72900;BME280;61043;52.036;5.566;2022-07-29T04:27:19;101705.44;;;17.21;61.15
72900;BME280;61043;52.036;5.566;2022-07-29T04:29:46;101702.50;;;17.24;60.74
72900;BME280;61043;52.036;5.566;2022-07-29T04:32:23;101697.94;;;17.15;61.73
72900;BME280;61043;52.036;5.566;2022-07-29T04:34:50;101703.28;;;17.15;61.32
72900;BME280;61043;52.036;5.566;2022-07-29T04:37:17;101690.16;;;17.12;60.59
72900;BME280;61043;52.036;5.566;2022-07-29T04:39:43;101697.31;;;17.12;61.53
72900;BME280;61043;52.036;5.566;2022-07-29T04:42:10;101709.47;;;17.16;60.81
72900;BME280;61043;52.036;5.566;2022-07-29T04:44:38;101697.59;;;17.09;61.53
72900;BME280;61043;52.036;5.566;2022-07-29T04:47:08;101704.19;;;17.05;61.51
72900;BME280;61043;52.036;5.566;2022-07-29T04:49:38;101683.88;;;16.91;61.63
72900;BME280;61043;52.036;5.566;2022-07-29T04:52:05;101692.84;;;17.01;61.39
72900;BME280;61043;52.036;5.566;2022-07-29T04:54:32;101700.03;;;17.00;62.15
72900;BME280;61043;52.036;5.566;2022-07-29T04:56:59;101691.81;;;16.92;61.88
72900;BME280;61043;52.036;5.566;2022-07-29T04:59:25;101717.94;;;16.89;62.79
72900;BME280;61043;52.036;5.566;2022-07-29T05:01:52;101708.69;;;16.93;62.19
72900;BME280;61043;52.036;5.566;2022-07-29T05:04:19;101714.88;;;16.93;61.66
72900;BME280;61043;52.036;5.566;2022-07-29T05:06:46;101716.94;;;17.01;61.87
72900;BME280;61043;52.036;5.566;2022-07-29T05:09:13;101720.69;;;17.10;62.05
72900;BME280;61043;52.036;5.566;2022-07-29T05:11:39;101721.19;;;17.15;61.32
72900;BME280;61043;52.036;5.566;2022-07-29T05:14:06;101727.44;;;17.25;61.47
72900;BME280;61043;52.036;5.566;2022-07-29T05:16:32;101692.13;;;16.99;61.86
72900;BME280;61043;52.036;5.566;2022-07-29T05:18:59;101729.78;;;17.18;61.27
72900;BME280;61043;52.036;5.566;2022-07-29T05:21:26;101717.63;;;17.14;61.44
72900;BME280;61043;52.036;5.566;2022-07-29T05:23:52;101726.84;;;17.21;61.84
72900;BME280;61043;52.036;5.566;2022-07-29T05:26:19;101729.78;;;17.18;61.33
72900;BME280;61043;52.036;5.566;2022-07-29T05:28:45;101712.75;;;17.19;62.15
72900;BME280;61043;52.036;5.566;2022-07-29T05:31:12;101718.63;;;17.13;62.42
72900;BME280;61043;52.036;5.566;2022-07-29T05:33:41;101714.56;;;17.19;61.60
72900;BME280;61043;52.036;5.566;2022-07-29T05:36:09;101700.66;;;17.25;60.88
72900;BME280;61043;52.036;5.566;2022-07-29T05:38:36;101727.16;;;17.39;60.89
72900;BME280;61043;52.036;5.566;2022-07-29T05:41:03;101734.28;;;17.50;60.93
72900;BME280;61043;52.036;5.566;2022-07-29T05:43:30;101727.50;;;17.46;61.43
72900;BME280;61043;52.036;5.566;2022-07-29T05:45:57;101735.84;;;17.53;61.46
72900;BME280;61043;52.036;5.566;2022-07-29T05:48:24;101734.66;;;17.45;61.72
72900;BME280;61043;52.036;5.566;2022-07-29T05:50:51;101733.34;;;17.40;61.80
72900;BME280;61043;52.036;5.566;2022-07-29T05:53:17;101733.72;;;17.46;61.70
72900;BME280;61043;52.036;5.566;2022-07-29T05:55:47;101735.75;;;17.54;60.90
72900;BME280;61043;52.036;5.566;2022-07-29T05:58:13;101748.69;;;17.38;62.32
72900;BME280;61043;52.036;5.566;2022-07-29T06:00:40;101747.94;;;17.47;61.72
72900;BME280;61043;52.036;5.566;2022-07-29T06:03:07;101764.34;;;17.54;61.78
72900;BME280;61043;52.036;5.566;2022-07-29T06:05:33;101770.09;;;17.49;62.33
72900;BME280;61043;52.036;5.566;2022-07-29T06:08:00;101760.47;;;17.46;61.64
72900;BME280;61043;52.036;5.566;2022-07-29T06:10:27;101771.50;;;17.53;62.49
72900;BME280;61043;52.036;5.566;2022-07-29T06:12:53;101775.97;;;17.64;61.94
72900;BME280;61043;52.036;5.566;2022-07-29T06:15:20;101756.63;;;17.60;61.59
72900;BME280;61043;52.036;5.566;2022-07-29T06:17:48;101743.56;;;17.46;61.64
72900;BME280;61043;52.036;5.566;2022-07-29T06:20:30;101772.59;;;17.62;62.08
72900;BME280;61043;52.036;5.566;2022-07-29T06:22:58;101778.59;;;17.54;62.52
72900;BME280;61043;52.036;5.566;2022-07-29T06:25:26;101791.91;;;17.65;62.50
72900;BME280;61043;52.036;5.566;2022-07-29T06:27:55;101770.75;;;17.62;62.34
72900;BME280;61043;52.036;5.566;2022-07-29T06:30:22;101772.19;;;17.66;62.15
72900;BME280;61043;52.036;5.566;2022-07-29T06:32:49;101772.66;;;17.72;61.63
72900;BME280;61043;52.036;5.566;2022-07-29T06:35:15;101780.75;;;17.60;61.99
72900;BME280;61043;52.036;5.566;2022-07-29T06:38:03;101774.97;;;17.44;62.64
72900;BME280;61043;52.036;5.566;2022-07-29T06:40:50;101776.16;;;17.51;62.78
72900;BME280;61043;52.036;5.566;2022-07-29T06:43:35;101775.75;;;17.67;61.69
72900;BME280;61043;52.036;5.566;2022-07-29T06:46:21;101766.19;;;17.85;61.74
72900;BME280;61043;52.036;5.566;2022-07-29T06:48:49;101762.91;;;18.03;61.25
72900;BME280;61043;52.036;5.566;2022-07-29T06:51:17;101733.66;;;17.90;60.59
72900;BME280;61043;52.036;5.566;2022-07-29T06:53:49;101775.41;;;18.14;60.59
72900;BME280;61043;52.036;5.566;2022-07-29T06:56:33;101774.03;;;18.19;61.34
72900;BME280;61043;52.036;5.566;2022-07-29T06:59:06;101777.44;;;18.31;59.67
72900;BME280;61043;52.036;5.566;2022-07-29T07:01:33;101779.75;;;18.36;59.92
72900;BME280;61043;52.036;5.566;2022-07-29T07:04:00;101778.06;;;18.34;60.10
72900;BME280;61043;52.036;5.566;2022-07-29T07:06:26;101771.69;;;18.36;59.78
72900;BME280;61043;52.036;5.566;2022-07-29T07:08:53;101761.53;;;18.29;60.78
72900;BME280;61043;52.036;5.566;2022-07-29T07:11:20;101771.13;;;18.32;60.61
72900;BME280;61043;52.036;5.566;2022-07-29T07:13:46;101767.38;;;18.23;60.96
72900;BME280;61043;52.036;5.566;2022-07-29T07:16:13;101767.91;;;18.38;59.65
72900;BME280;61043;52.036;5.566;2022-07-29T07:18:40;101765.34;;;18.58;59.76
72900;BME280;61043;52.036;5.566;2022-07-29T07:21:06;101769.66;;;18.80;58.54
72900;BME280;61043;52.036;5.566;2022-07-29T07:23:33;101769.06;;;19.26;58.08
72900;BME280;61043;52.036;5.566;2022-07-29T07:26:00;101758.19;;;19.37;56.56
72900;BME280;61043;52.036;5.566;2022-07-29T07:28:26;101766.97;;;19.49;56.27
72900;BME280;61043;52.036;5.566;2022-07-29T07:30:53;101767.28;;;19.75;56.73
72900;BME280;61043;52.036;5.566;2022-07-29T07:33:19;101760.63;;;19.60;55.86
72900;BME280;61043;52.036;5.566;2022-07-29T07:35:46;101764.31;;;19.59;56.62
72900;BME280;61043;52.036;5.566;2022-07-29T07:38:13;101756.22;;;19.39;56.93
72900;BME280;61043;52.036;5.566;2022-07-29T07:40:40;101762.00;;;19.35;56.97
72900;BME280;61043;52.036;5.566;2022-07-29T07:43:07;101768.81;;;19.39;57.36
72900;BME280;61043;52.036;5.566;2022-07-29T07:45:34;101758.19;;;19.37;56.87
72900;BME280;61043;52.036;5.566;2022-07-29T07:48:03;101762.31;;;19.41;57.60
72900;BME280;61043;52.036;5.566;2022-07-29T07:50:30;101760.91;;;19.47;55.95
72900;BME280;61043;52.036;5.566;2022-07-29T07:52:56;101731.34;;;19.28;57.05
72900;BME280;61043;52.036;5.566;2022-07-29T07:55:25;101764.56;;;19.65;56.90
72900;BME280;61043;52.036;5.566;2022-07-29T07:57:52;101757.25;;;19.77;56.50
72900;BME280;61043;52.036;5.566;2022-07-29T08:00:19;101758.16;;;20.15;55.45
72900;BME280;61043;52.036;5.566;2022-07-29T08:02:49;101762.50;;;20.36;54.63
72900;BME280;61043;52.036;5.566;2022-07-29T08:05:17;101769.28;;;20.40;54.49
72900;BME280;61043;52.036;5.566;2022-07-29T08:07:45;101747.28;;;20.17;55.21
72900;BME280;61043;52.036;5.566;2022-07-29T08:10:16;101761.25;;;20.30;54.98
72900;BME280;61043;52.036;5.566;2022-07-29T08:13:07;101747.19;;;20.36;55.06
72900;BME280;61043;52.036;5.566;2022-07-29T08:15:34;101759.97;;;20.71;53.62
72900;BME280;61043;52.036;5.566;2022-07-29T08:18:01;101757.66;;;20.86;53.89
72900;BME280;61043;52.036;5.566;2022-07-29T08:20:34;101749.78;;;20.93;54.24
72900;BME280;61043;52.036;5.566;2022-07-29T08:23:02;101741.38;;;21.24;53.31
72900;BME280;61043;52.036;5.566;2022-07-29T08:25:29;101742.25;;;21.42;51.83
72900;BME280;61043;52.036;5.566;2022-07-29T08:27:56;101744.34;;;21.48;52.85
72900;BME280;61043;52.036;5.566;2022-07-29T08:30:23;101745.25;;;21.57;51.58
72900;BME280;61043;52.036;5.566;2022-07-29T08:32:50;101752.50;;;21.56;52.29
72900;BME280;61043;52.036;5.566;2022-07-29T08:35:22;101748.66;;;21.41;52.02
72900;BME280;61043;52.036;5.566;2022-07-29T08:37:51;101748.97;;;21.56;52.46
72900;BME280;61043;52.036;5.566;2022-07-29T08:40:19;101752.72;;;21.63;51.62
72900;BME280;61043;52.036;5.566;2022-07-29T08:42:58;101714.69;;;21.66;51.87
72900;BME280;61043;52.036;5.566;2022-07-29T08:45:25;101750.19;;;22.06;50.26
72900;BME280;61043;52.036;5.566;2022-07-29T08:47:52;101755.75;;;22.30;49.60
72900;BME280;61043;52.036;5.566;2022-07-29T08:50:18;101753.78;;;22.40;50.24
72900;BME280;61043;52.036;5.566;2022-07-29T08:52:46;101740.63;;;22.37;50.21
72900;BME280;61043;52.036;5.566;2022-07-29T08:55:14;101739.97;;;22.43;50.45
72900;BME280;61043;52.036;5.566;2022-07-29T08:57:46;101747.41;;;22.41;49.19
72900;BME280;61043;52.036;5.566;2022-07-29T09:00:23;101751.50;;;22.54;50.22
72900;BME280;61043;52.036;5.566;2022-07-29T09:02:56;101745.22;;;22.45;49.54
72900;BME280;61043;52.036;5.566;2022-07-29T09:05:33;101762.94;;;22.48;49.22
72900;BME280;61043;52.036;5.566;2022-07-29T09:08:06;101756.16;;;22.43;49.48
72900;BME280;61043;52.036;5.566;2022-07-29T09:10:35;101743.84;;;22.15;49.70
72900;BME280;61043;52.036;5.566;2022-07-29T09:13:01;101756.31;;;22.34;49.64
72900;BME280;61043;52.036;5.566;2022-07-29T09:15:28;101760.22;;;22.39;50.23
72900;BME280;61043;52.036;5.566;2022-07-29T09:17:55;101758.91;;;22.52;49.44
72900;BME280;61043;52.036;5.566;2022-07-29T09:20:22;101725.69;;;22.51;49.02
72900;BME280;61043;52.036;5.566;2022-07-29T09:22:50;101757.88;;;22.87;48.87
72900;BME280;61043;52.036;5.566;2022-07-29T09:25:36;101764.31;;;22.94;49.51
72900;BME280;61043;52.036;5.566;2022-07-29T09:28:10;101744.00;;;22.74;50.18
72900;BME280;61043;52.036;5.566;2022-07-29T09:31:10;101764.66;;;22.91;50.19
72900;BME280;61043;52.036;5.566;2022-07-29T09:33:37;101756.22;;;22.94;50.02
72900;BME280;61043;52.036;5.566;2022-07-29T09:36:08;101754.66;;;22.75;49.78
72900;BME280;61043;52.036;5.566;2022-07-29T09:38:35;101759.75;;;22.86;50.04
72900;BME280;61043;52.036;5.566;2022-07-29T09:41:04;101753.22;;;22.97;50.07
72900;BME280;61043;52.036;5.566;2022-07-29T09:43:33;101752.41;;;23.05;49.16
72900;BME280;61043;52.036;5.566;2022-07-29T09:46:13;101747.94;;;22.96;49.43
72900;BME280;61043;52.036;5.566;2022-07-29T09:48:40;101757.81;;;23.05;49.12
72900;BME280;61043;52.036;5.566;2022-07-29T09:51:19;101749.72;;;23.13;48.21
72900;BME280;61043;52.036;5.566;2022-07-29T09:53:53;101744.31;;;23.05;48.90
72900;BME280;61043;52.036;5.566;2022-07-29T09:56:49;101739.75;;;23.14;48.68
72900;BME280;61043;52.036;5.566;2022-07-29T09:59:15;101757.53;;;23.49;48.42
72900;BME280;61043;52.036;5.566;2022-07-29T10:01:42;101738.47;;;23.50;47.94
72900;BME280;61043;52.036;5.566;2022-07-29T10:04:08;101740.63;;;23.55;47.78
72900;BME280;61043;52.036;5.566;2022-07-29T10:06:43;101753.38;;;23.79;47.50
72900;BME280;61043;52.036;5.566;2022-07-29T10:09:30;101731.38;;;23.90;47.24
72900;BME280;61043;52.036;5.566;2022-07-29T10:12:09;101760.38;;;24.29;46.39
72900;BME280;61043;52.036;5.566;2022-07-29T10:14:37;101745.16;;;24.36;45.77
72900;BME280;61043;52.036;5.566;2022-07-29T10:17:06;101751.16;;;24.63;45.85
72900;BME280;61043;52.036;5.566;2022-07-29T10:19:34;101751.97;;;24.72;45.15
72900;BME280;61043;52.036;5.566;2022-07-29T10:22:03;101756.81;;;24.84;44.88
72900;BME280;61043;52.036;5.566;2022-07-29T10:24:31;101742.38;;;24.92;44.82
72900;BME280;61043;52.036;5.566;2022-07-29T10:27:02;101743.06;;;24.94;44.48
72900;BME280;61043;52.036;5.566;2022-07-29T10:29:29;101753.25;;;25.23;44.40
72900;BME280;61043;52.036;5.566;2022-07-29T10:37:52;101734.41;;;25.53;44.31
72900;BME280;61043;52.036;5.566;2022-07-29T10:40:35;101742.16;;;25.56;44.25
72900;BME280;61043;52.036;5.566;2022-07-29T10:43:27;101741.94;;;25.43;43.91
72900;BME280;61043;52.036;5.566;2022-07-29T10:45:57;101741.97;;;25.58;43.86
72900;BME280;61043;52.036;5.566;2022-07-29T10:48:24;101742.22;;;25.48;44.14
72900;BME280;61043;52.036;5.566;2022-07-29T10:51:02;101742.03;;;25.49;43.95
72900;BME280;61043;52.036;5.566;2022-07-29T10:53:50;101742.38;;;25.69;43.87
72900;BME280;61043;52.036;5.566;2022-07-29T10:56:29;101745.41;;;25.75;43.75
72900;BME280;61043;52.036;5.566;2022-07-29T11:01:47;101750.81;;;25.98;43.10
72900;BME280;61043;52.036;5.566;2022-07-29T11:07:12;101728.72;;;26.30;42.47
72900;BME280;61043;52.036;5.566;2022-07-29T11:15:22;101747.19;;;26.50;42.64
72900;BME280;61043;52.036;5.566;2022-07-29T11:20:42;101749.28;;;26.99;40.74
72900;BME280;61043;52.036;5.566;2022-07-29T11:28:57;101746.72;;;27.12;40.68
72900;BME280;61043;52.036;5.566;2022-07-29T11:31:38;101735.75;;;27.42;40.20
72900;BME280;61043;52.036;5.566;2022-07-29T11:45:10;101736.25;;;27.31;40.39
72900;BME280;61043;52.036;5.566;2022-07-29T11:47:58;101732.06;;;26.92;41.08
72900;BME280;61043;52.036;5.566;2022-07-29T11:50:45;101733.91;;;27.06;41.35
72900;BME280;61043;52.036;5.566;2022-07-29T11:53:13;101736.22;;;27.24;41.86
72900;BME280;61043;52.036;5.566;2022-07-29T11:55:42;101741.00;;;27.43;41.67
72900;BME280;61043;52.036;5.566;2022-07-29T11:58:21;101731.13;;;27.64;40.93
72900;BME280;61043;52.036;5.566;2022-07-29T12:00:51;101731.44;;;27.97;39.18
72900;BME280;61043;52.036;5.566;2022-07-29T12:03:25;101729.38;;;28.06;39.55
72900;BME280;61043;52.036;5.566;2022-07-29T12:06:00;101734.06;;;28.19;41.83
72900;BME280;61043;52.036;5.566;2022-07-29T12:08:27;101718.16;;;27.87;38.72
72900;BME280;61043;52.036;5.566;2022-07-29T12:10:54;101731.34;;;27.84;39.64
72900;BME280;61043;52.036;5.566;2022-07-29T12:13:20;101728.47;;;27.92;39.88
72900;BME280;61043;52.036;5.566;2022-07-29T12:15:55;101735.78;;;27.70;40.68
72900;BME280;61043;52.036;5.566;2022-07-29T12:18:25;101736.63;;;27.71;40.52
72900;BME280;61043;52.036;5.566;2022-07-29T12:20:58;101730.69;;;27.60;40.55
72900;BME280;61043;52.036;5.566;2022-07-29T12:23:30;101727.72;;;27.55;40.53
72900;BME280;61043;52.036;5.566;2022-07-29T12:26:04;101724.34;;;27.53;40.29
72900;BME280;61043;52.036;5.566;2022-07-29T12:28:38;101719.44;;;27.70;40.71
72900;BME280;61043;52.036;5.566;2022-07-29T12:31:06;101728.78;;;28.10;40.25
72900;BME280;61043;52.036;5.566;2022-07-29T12:33:39;101734.56;;;27.94;40.29
72900;BME280;61043;52.036;5.566;2022-07-29T12:36:06;101742.00;;;28.14;39.43
72900;BME280;61043;52.036;5.566;2022-07-29T12:38:43;101731.50;;;28.10;39.72
72900;BME280;61043;52.036;5.566;2022-07-29T12:41:10;101721.19;;;28.34;39.35
72900;BME280;61043;52.036;5.566;2022-07-29T12:43:37;101724.09;;;28.74;40.01
72900;BME280;61043;52.036;5.566;2022-07-29T12:46:14;101734.44;;;28.92;38.23
72900;BME280;61043;52.036;5.566;2022-07-29T12:48:42;101740.13;;;28.97;38.92
72900;BME280;61043;52.036;5.566;2022-07-29T12:51:11;101734.94;;;29.09;38.65
72900;BME280;61043;52.036;5.566;2022-07-29T12:53:40;101724.47;;;29.06;38.52
72900;BME280;61043;52.036;5.566;2022-07-29T12:56:15;101728.03;;;28.58;39.13
72900;BME280;61043;52.036;5.566;2022-07-29T12:59:20;101728.38;;;28.48;38.64
72900;BME280;61043;52.036;5.566;2022-07-29T13:01:50;101710.63;;;28.24;39.02
72900;BME280;61043;52.036;5.566;2022-07-29T13:04:30;101730.94;;;28.50;40.22
72900;BME280;61043;52.036;5.566;2022-07-29T13:07:04;101734.88;;;28.47;38.21
72900;BME280;61043;52.036;5.566;2022-07-29T13:12:11;101723.16;;;29.02;38.75
72900;BME280;61043;52.036;5.566;2022-07-29T13:14:40;101729.53;;;28.67;38.65
72900;BME280;61043;52.036;5.566;2022-07-29T13:17:09;101727.69;;;28.81;38.75
72900;BME280;61043;52.036;5.566;2022-07-29T13:19:47;101716.50;;;29.11;38.58
72900;BME280;61043;52.036;5.566;2022-07-29T13:22:21;101724.47;;;29.19;37.30
72900;BME280;61043;52.036;5.566;2022-07-29T13:24:50;101721.53;;;29.14;36.67
72900;BME280;61043;52.036;5.566;2022-07-29T13:27:38;101730.03;;;28.97;36.25
72900;BME280;61043;52.036;5.566;2022-07-29T13:30:07;101730.19;;;28.69;36.43
72900;BME280;61043;52.036;5.566;2022-07-29T13:32:35;101718.53;;;29.02;37.89
72900;BME280;61043;52.036;5.566;2022-07-29T13:35:05;101719.59;;;29.01;36.14
72900;BME280;61043;52.036;5.566;2022-07-29T13:37:33;101725.72;;;29.16;36.86
72900;BME280;61043;52.036;5.566;2022-07-29T13:40:02;101714.63;;;29.31;35.64
72900;BME280;61043;52.036;5.566;2022-07-29T13:42:30;101721.59;;;29.67;34.80
72900;BME280;61043;52.036;5.566;2022-07-29T13:44:57;101721.97;;;29.64;33.87
72900;BME280;61043;52.036;5.566;2022-07-29T13:47:23;101692.19;;;29.43;34.88
72900;BME280;61043;52.036;5.566;2022-07-29T13:49:59;101713.38;;;29.60;34.80
72900;BME280;61043;52.036;5.566;2022-07-29T13:52:27;101719.91;;;29.86;34.94